Aérodrome :







RETROUVEZ-NOUS SUR...

 
LOGIN :

S'inscrire | Disclaimer

   EN    FR    IT 

 









Légende :    VFR   VFR Marginal   IFR   IFR Intensif   IFR Très Intensif
Visi : 
Plafond : 
>= 8 km
>= 3000ft
5 à 8 km
1000 à 3000 ft
1500m à 5 km
500 à 1000 ft
800 à 1500m
200 à 500 ft
< 800m
< 200 ft
Symboles :   Orages  Brouillard  Fortes neiges  Fortes précipitations  Vent > 20 kt






- Altitude de l'aérodrome : 1709 ft
- Code IATA : YKL


CYKL - Schefferville

DERNIER METAR :
  • 202100Z AUTO 28015G22KT 9SM CLR M27/M32 A2961 RMK SLP103

METARs EXPIRÉS :
  • 202000Z AUTO 28022G28KT 9SM CLR M27/M33 A2960 RMK SLP101
  • 201900Z AUTO 27019G25KT 9SM SCT022 M27/M33 A2961 RMK SLP102

TAF TAF CYKL
Valide du 20 à 20h jusqu'au 21 à 08h UTC


201938Z 2020/2108 29015G30KT P6SM FEW020
TEMPO 2020/2108 5SM HZ BKN020 RMK FCST BASED ON AUTO OBS. NXT FCST BY 210200Z



MET'MAP, la Météo Aéronautique d'un coup d'oeil ! - Copyright ORBIFLY Décembre 2007 - Disclaimer

ORBIFLY MET'MAP TEAM :

Programmation & Développement : Alexandra Zaïnal
Sur une idée originale de : Baudouin d'Aumeries
Assistance à la programmation : Marc-Olivier Méhu
Soutien technique & logistique : Manuel Goepfert

Contact : metmap@orbifly.com




SOURCES & CREDITS :

   NOAA